Time;durP1;ratioP1;P1;durP2;ratioP2;P2;SDS_P1;SDS_P2;PMS_P1;PMS_P2;Temp;Humidity;BMP_temperature;BMP_pressure;BME280_temperature;BME280_humidity;BME280_pressure;Samples;Min_cycle;Max_cycle;Signal;HPM_P1;HPM_P2
2022/11/26 00:03:55;;;;;;;65.55;37.95;;;;;;;-0.86;88.55;98267.75;10248847;28;20072;-57
2022/11/26 00:08:54;;;;;;;61.42;36.15;;;;;;;-0.89;88.26;98279.44;10252993;28;20074;-56
2022/11/26 00:13:53;;;;;;;60.05;34.08;;;;;;;-0.96;88.70;98273.16;10257263;28;20116;-57
2022/11/26 00:18:52;;;;;;;57.70;33.05;;;;;;;-1.10;89.07;98281.72;10256775;28;20078;-56
2022/11/26 00:23:53;;;;;;;58.97;32.42;;;;;;;-1.10;88.64;98280.06;10256750;28;20113;-56
2022/11/26 00:28:59;;;;;;;52.40;29.65;;;;;;;-1.11;89.13;98252.84;10255940;28;20519;-56
2022/11/26 00:33:57;;;;;;;50.47;28.98;;;;;;;-1.15;89.15;98262.78;10256008;28;20081;-57
2022/11/26 00:39:11;;;;;;;55.05;30.90;;;;;;;-1.24;89.16;98250.44;10255866;28;20037;-57
2022/11/26 00:44:23;;;;;;;59.88;35.78;;;;;;;-1.20;89.11;98254.91;10255820;28;20076;-56
2022/11/26 00:49:23;;;;;;;57.30;31.40;;;;;;;-1.17;89.35;98251.66;10255055;28;20066;-57
2022/11/26 00:54:22;;;;;;;62.63;35.58;;;;;;;-1.20;90.27;98256.59;10256053;28;20489;-56
2022/11/26 00:59:22;;;;;;;73.32;38.53;;;;;;;-1.25;90.08;98249.56;10255389;28;20062;-57
2022/11/26 01:04:21;;;;;;;72.13;38.38;;;;;;;-1.19;89.60;98253.22;10254726;28;20086;-57
2022/11/26 01:09:20;;;;;;;68.95;38.75;;;;;;;-1.22;89.81;98254.81;10254425;28;20424;-57
2022/11/26 01:14:20;;;;;;;69.28;39.88;;;;;;;-1.19;89.45;98254.09;10254888;28;20100;-57
2022/11/26 01:19:19;;;;;;;63.65;37.90;;;;;;;-1.21;89.12;98263.34;10253764;28;20058;-57
2022/11/26 01:24:18;;;;;;;70.43;38.35;;;;;;;-1.23;89.65;98267.50;10254542;28;20078;-57
2022/11/26 01:29:18;;;;;;;51.63;30.63;;;;;;;-1.26;89.00;98269.84;10253673;28;20034;-57
2022/11/26 01:34:17;;;;;;;58.67;32.03;;;;;;;-1.29;89.59;98280.75;10253885;28;20069;-57
2022/11/26 01:39:21;;;;;;;56.25;31.23;;;;;;;-1.29;89.74;98288.38;10253405;28;20106;-57
2022/11/26 01:44:23;;;;;;;61.08;34.97;;;;;;;-1.30;89.12;98294.28;10253488;28;20072;-57
2022/11/26 01:49:23;;;;;;;52.60;32.03;;;;;;;-1.33;89.26;98301.78;10253179;28;20066;-57
2022/11/26 01:54:23;;;;;;;60.60;33.70;;;;;;;-1.33;89.26;98293.22;10252970;28;20062;-57
2022/11/26 01:59:31;;;;;;;;;;;;;;;-1.35;89.17;98290.63;10253126;28;20065;-56
2022/11/26 02:04:35;;;;;;;61.70;33.05;;;;;;;-1.39;89.47;98286.16;10252720;28;19969;-56
2022/11/26 02:09:34;;;;;;;66.78;36.67;;;;;;;-1.42;89.83;98293.63;10252429;28;20475;-56
2022/11/26 02:14:43;;;;;;;;;;;;;;;-1.45;89.71;98290.91;10252691;28;20488;-56
2022/11/26 02:20:20;;;;;;;53.65;30.00;;;;;;;-1.43;89.68;98299.50;10251783;28;20343;-56
2022/11/26 02:25:38;;;;;;;56.10;29.73;;;;;;;-1.44;89.76;98303.72;10201480;28;20077;-57
2022/11/26 02:31:22;;;;;;;52.60;26.80;;;;;;;-1.43;89.37;98304.59;10250775;28;20070;-56
2022/11/26 02:36:29;;;;;;;40.88;24.27;;;;;;;-1.48;89.38;98296.69;10251416;28;20077;-56
2022/11/26 02:41:32;;;;;;;41.35;23.10;;;;;;;-1.47;90.16;98300.13;10252021;28;20070;-56
2022/11/26 02:46:31;;;;;;;45.10;24.58;;;;;;;-1.47;89.85;98297.56;10252189;28;20080;-56
2022/11/26 02:51:30;;;;;;;48.17;25.25;;;;;;;-1.48;89.92;98295.84;10250855;28;20070;-56
2022/11/26 02:56:30;;;;;;;48.13;26.77;;;;;;;-1.49;90.06;98299.19;10250698;28;20089;-56
2022/11/26 03:01:36;;;;;;;51.55;27.40;;;;;;;-1.55;90.46;98296.28;10250590;28;20085;-57
2022/11/26 03:06:37;;;;;;;54.55;30.63;;;;;;;-1.59;91.20;98307.09;10250489;28;20069;-56
2022/11/26 03:11:36;;;;;;;70.28;36.83;;;;;;;-1.68;90.61;98303.25;10250544;28;20072;-56
2022/11/26 03:16:35;;;;;;;74.65;41.85;;;;;;;-1.70;90.52;98306.50;10250432;28;20077;-57
2022/11/26 03:21:34;;;;;;;73.85;41.50;;;;;;;-1.81;90.59;98299.94;10250932;28;20050;-57
2022/11/26 03:26:33;;;;;;;47.92;25.90;;;;;;;-2.21;93.38;98323.97;10249716;28;20026;-57
2022/11/26 03:31:32;;;;;;;44.60;27.08;;;;;;;-2.36;93.55;98333.22;10249800;28;20110;-57
2022/11/26 03:36:31;;;;;;;54.20;28.38;;;;;;;-2.35;93.30;98340.94;10249968;28;20484;-57
2022/11/26 03:41:30;;;;;;;55.50;26.25;;;;;;;-2.45;93.57;98338.66;10249769;28;20062;-57
2022/11/26 03:46:29;;;;;;;;;;;;;;;-2.40;92.32;98349.09;10258450;28;20100;-57
2022/11/26 03:51:28;;;;;;;38.85;21.88;;;;;;;-2.37;91.91;98356.91;10257778;28;19920;-56
2022/11/26 03:56:27;;;;;;;41.88;22.35;;;;;;;-2.37;92.37;98361.97;10257274;28;20081;-56
2022/11/26 04:01:26;;;;;;;44.05;23.33;;;;;;;-2.39;92.14;98368.63;10257097;28;20042;-56
2022/11/26 04:06:25;;;;;;;;;;;;;;;-2.36;91.34;98367.16;10257366;28;20062;-57
2022/11/26 04:11:24;;;;;;;41.17;21.55;;;;;;;-2.35;91.65;98379.06;10256754;28;19996;-57
2022/11/26 04:16:23;;;;;;;33.42;20.05;;;;;;;-2.41;91.81;98385.47;10256969;28;20034;-57
2022/11/26 04:21:22;;;;;;;38.22;21.67;;;;;;;-2.40;92.30;98390.63;10256653;28;20026;-56
2022/11/26 04:26:21;;;;;;;45.78;24.75;;;;;;;-2.37;91.73;98400.97;10256325;28;20389;-56
2022/11/26 04:31:20;;;;;;;45.90;25.70;;;;;;;-2.37;91.36;98400.13;10256122;28;20042;-57
2022/11/26 04:36:19;;;;;;;50.60;27.95;;;;;;;-2.45;92.04;98408.91;10255869;28;20026;-57
2022/11/26 04:41:18;;;;;;;57.88;28.00;;;;;;;-2.42;92.29;98409.13;10255778;28;20034;-57
2022/11/26 04:46:17;;;;;;;59.42;31.50;;;;;;;-2.49;91.83;98408.75;10255855;28;20570;-56
2022/11/26 04:51:16;;;;;;;64.25;34.90;;;;;;;-2.43;92.55;98427.69;10255247;28;20484;-57
2022/11/26 04:56:15;;;;;;;76.43;40.05;;;;;;;-2.40;92.02;98422.81;10254108;28;20034;-56
2022/11/26 05:01:13;;;;;;;71.32;38.40;;;;;;;-2.37;92.40;98443.31;10255058;28;20115;-56
2022/11/26 05:06:12;;;;;;;65.80;34.20;;;;;;;-2.36;91.70;98439.97;10254977;28;20061;-57
2022/11/26 05:11:11;;;;;;;60.83;33.88;;;;;;;-2.33;92.11;98442.72;10254219;28;20053;-57
2022/11/26 05:16:10;;;;;;;55.60;32.40;;;;;;;-2.33;91.35;98451.22;10254676;28;20504;-57
2022/11/26 05:21:09;;;;;;;58.65;30.52;;;;;;;-2.37;91.42;98450.94;10249209;28;20511;-57
2022/11/26 05:26:08;;;;;;;94.38;46.28;;;;;;;-2.37;91.44;98456.03;10252303;28;20042;-57
2022/11/26 05:31:07;;;;;;;63.90;33.60;;;;;;;-2.62;93.18;98467.22;10250154;28;20051;-57
2022/11/26 05:36:07;;;;;;;62.95;36.45;;;;;;;-2.60;93.13;98454.63;10241101;28;20531;-57
2022/11/26 05:41:05;;;;;;;;;;;;;;;-2.45;92.74;98460.66;10252859;28;20507;-58
2022/11/26 05:46:07;;;;;;;64.90;37.67;;;;;;;-2.42;92.13;98473.53;10252016;28;20384;-57
2022/11/26 05:51:06;;;;;;;53.15;29.33;;;;;;;-2.42;92.04;98472.66;10251339;28;20487;-57
2022/11/26 05:56:05;;;;;;;;;;;;;;;-2.42;92.24;98475.22;10251854;28;20058;-57
2022/11/26 06:01:08;;;;;;;55.95;26.05;;;;;;;-2.35;92.47;98467.16;10251286;28;19924;-57
2022/11/26 06:06:07;;;;;;;61.50;33.47;;;;;;;-2.22;92.60;98477.28;10251590;28;20066;-57
2022/11/26 06:11:06;;;;;;;71.38;36.50;;;;;;;-2.09;92.54;98479.78;10266159;28;20074;-55
2022/11/26 06:16:05;;;;;;;72.55;40.08;;;;;;;-1.95;92.18;98474.66;10250744;28;20041;-56
2022/11/26 06:21:05;;;;;;;;;;;;;;;-1.82;91.84;98487.31;10250705;28;20073;-56
2022/11/26 06:26:11;;;;;;;89.65;45.20;;;;;;;-1.71;91.64;98491.34;10250400;28;19956;-57
2022/11/26 06:31:11;;;;;;;86.15;44.92;;;;;;;-1.58;91.66;98497.19;10249753;28;20093;-57
2022/11/26 06:36:10;;;;;;;77.95;44.28;;;;;;;-1.46;91.29;98492.78;10250480;28;20034;-57
2022/11/26 06:41:09;;;;;;;158.35;93.15;;;;;;;-1.44;92.03;98496.31;10248880;28;20085;-57
2022/11/26 06:46:09;;;;;;;128.32;76.78;;;;;;;-1.38;91.89;98496.63;10249436;28;20046;-57
2022/11/26 06:51:15;;;;;;;134.57;78.72;;;;;;;-1.24;91.06;98493.22;10249460;28;20074;-57
2022/11/26 06:56:15;;;;;;;138.48;79.07;;;;;;;-1.09;90.98;98493.22;10250714;28;20066;-57
2022/11/26 07:01:17;;;;;;;123.00;72.45;;;;;;;-0.94;90.87;98505.94;10251304;28;20149;-57
2022/11/26 07:06:27;;;;;;;111.78;61.67;;;;;;;-0.82;91.21;98516.81;10251316;28;20472;-58
2022/11/26 07:11:27;;;;;;;96.57;55.55;;;;;;;-0.68;90.72;98516.69;10250562;28;20070;-58
2022/11/26 07:16:26;;;;;;;;;;;;;;;-0.51;90.21;98513.41;10250388;28;20573;-58
2022/11/26 07:21:27;;;;;;;91.93;52.83;;;;;;;-0.41;90.61;98520.75;10249861;28;19957;-56
2022/11/26 07:26:26;;;;;;;94.40;55.17;;;;;;;-0.26;90.14;98514.72;10250172;28;20818;-56
2022/11/26 07:31:25;;;;;;;99.13;57.83;;;;;;;-0.10;89.69;98511.34;10250075;28;20492;-57
2022/11/26 07:36:27;;;;;;;88.15;56.35;;;;;;;0.01;89.41;98505.13;10250010;28;20082;-57
2022/11/26 07:41:27;;;;;;;90.40;56.03;;;;;;;0.16;89.36;98499.94;10249540;28;20054;-57
2022/11/26 07:46:26;;;;;;;91.55;53.15;;;;;;;0.33;89.15;98486.34;10249517;28;20072;-58
2022/11/26 07:51:28;;;;;;;82.88;49.80;;;;;;;0.46;89.31;98496.38;10249164;28;20070;-58
2022/11/26 07:56:27;;;;;;;102.28;59.47;;;;;;;0.60;88.95;98498.75;10247670;28;20475;-57
2022/11/26 08:01:28;;;;;;;115.22;63.47;;;;;;;0.77;88.67;98497.91;10247060;28;20516;-57
2022/11/26 08:06:28;;;;;;;90.68;58.28;;;;;;;0.88;88.31;98512.09;10248179;28;20082;-58
2022/11/26 08:11:31;;;;;;;113.43;68.43;;;;;;;0.96;87.85;98520.13;10249036;28;20478;-57
2022/11/26 08:16:30;;;;;;;69.93;46.30;;;;;;;1.03;88.10;98527.28;10249203;28;20081;-58
2022/11/26 08:21:29;;;;;;;66.53;41.75;;;;;;;1.15;88.37;98531.25;10248710;28;20078;-56
2022/11/26 08:26:28;;;;;;;62.03;41.25;;;;;;;1.45;88.28;98532.72;10248935;28;20129;-56
2022/11/26 08:31:28;;;;;;;53.55;35.33;;;;;;;1.73;87.93;98534.88;10254670;28;20066;-56
2022/11/26 08:36:28;;;;;;;51.58;33.17;;;;;;;2.04;87.31;98528.59;10256356;28;20069;-57
2022/11/26 08:41:27;;;;;;;38.70;26.58;;;;;;;2.36;86.34;98531.72;10256161;28;20520;-56
2022/11/26 08:46:26;;;;;;;36.63;23.27;;;;;;;2.60;85.71;98526.78;10255910;28;20074;-57
2022/11/26 08:51:25;;;;;;;31.08;22.52;;;;;;;2.82;84.68;98536.25;10255749;28;20081;-57
2022/11/26 08:56:24;;;;;;;35.55;22.75;;;;;;;2.98;82.89;98525.84;10255106;28;20038;-58
2022/11/26 09:01:26;;;;;;;34.80;22.60;;;;;;;3.18;81.94;98526.63;10255329;28;20517;-58
2022/11/26 09:06:27;;;;;;;37.88;23.92;;;;;;;3.33;79.45;98520.38;10254958;28;20108;-57
2022/11/26 09:11:27;;;;;;;40.55;25.27;;;;;;;3.38;78.05;98516.31;10255141;28;20089;-57
2022/11/26 09:16:26;;;;;;;27.20;18.88;;;;;;;3.63;78.41;98521.56;10254777;28;20073;-57
2022/11/26 09:21:26;;;;;;;30.60;19.42;;;;;;;3.85;76.89;98507.00;10254236;28;20070;-57
2022/11/26 09:26:25;;;;;;;30.77;18.05;;;;;;;3.97;74.13;98501.44;10254059;28;20069;-57
2022/11/26 09:31:24;;;;;;;24.15;14.90;;;;;;;4.18;73.94;98496.22;10253635;28;20069;-57
2022/11/26 09:36:23;;;;;;;19.98;13.18;;;;;;;4.37;72.46;98495.19;10254306;28;20108;-57
2022/11/26 09:41:46;;;;;;;20.80;13.73;;;;;;;4.55;71.69;98500.97;10253193;28;20077;-57
2022/11/26 09:47:24;;;;;;;21.75;15.27;;;;;;;4.66;70.83;98481.63;10253980;28;20080;-57
2022/11/26 09:52:29;;;;;;;16.98;10.57;;;;;;;4.82;68.95;98477.88;10253479;28;20109;-57
2022/11/26 09:57:38;;;;;;;13.48;9.07;;;;;;;5.05;69.06;98476.09;10252576;28;20066;-58
2022/11/26 10:02:38;;;;;;;13.83;7.67;;;;;;;5.26;68.16;98480.19;10252753;28;20086;-57
2022/11/26 10:07:49;;;;;;;9.82;6.50;;;;;;;5.41;65.34;98477.22;10252045;28;20069;-58
2022/11/26 10:13:37;;;;;;;11.38;7.55;;;;;;;5.61;65.77;98472.69;10252504;28;20504;-58
2022/11/26 10:18:56;;;;;;;15.15;9.73;;;;;;;5.77;65.00;98462.00;10251042;28;20070;-58
2022/11/26 10:24:05;;;;;;;12.50;8.23;;;;;;;5.91;64.15;98447.81;10252230;28;20069;-58
2022/11/26 10:29:22;;;;;;;14.18;6.90;;;;;;;6.12;62.91;98457.88;10251693;28;20128;-58
2022/11/26 10:34:40;;;;;;;11.02;6.75;;;;;;;6.33;61.66;98452.44;10251363;28;20072;-58
2022/11/26 10:39:39;;;;;;;12.50;8.57;;;;;;;6.38;58.85;98437.94;10249935;28;20160;-57
2022/11/26 10:44:40;;;;;;;15.10;10.05;;;;;;;6.55;58.29;98443.53;10247699;28;20480;-57
2022/11/26 10:49:39;;;;;;;18.92;11.75;;;;;;;6.73;58.62;98427.66;10250090;28;20070;-58
2022/11/26 10:54:39;;;;;;;16.55;10.82;;;;;;;6.91;58.14;98432.38;10248160;28;20030;-58
2022/11/26 10:59:44;;;;;;;16.92;10.88;;;;;;;7.13;56.60;98444.13;10249504;28;20061;-58
2022/11/26 11:04:44;;;;;;;17.50;11.70;;;;;;;7.29;55.67;98450.53;10249453;28;20500;-59
2022/11/26 11:09:43;;;;;;;9.98;6.70;;;;;;;7.43;54.37;98443.13;10249733;28;20078;-58
2022/11/26 11:14:46;;;;;;;10.93;5.93;;;;;;;7.59;54.23;98442.63;10249244;28;20031;-58
2022/11/26 11:19:45;;;;;;;7.72;4.43;;;;;;;7.65;52.70;98435.00;10249907;28;20066;-59
2022/11/26 11:24:45;;;;;;;5.35;3.50;;;;;;;7.78;52.82;98435.25;10250211;28;20476;-59
2022/11/26 11:29:45;;;;;;;8.48;4.75;;;;;;;7.79;50.19;98429.25;10250316;28;20383;-58
2022/11/26 11:34:46;;;;;;;3.85;2.10;;;;;;;7.81;47.42;98436.19;10250126;28;20562;-58
2022/11/26 11:39:45;;;;;;;3.70;2.25;;;;;;;8.02;48.72;98425.41;10250328;28;20066;-57
2022/11/26 11:44:49;;;;;;;4.95;2.47;;;;;;;8.22;49.00;98418.03;10249783;28;20037;-56
2022/11/26 11:50:21;;;;;;;4.18;2.28;;;;;;;8.37;48.54;98421.78;10249225;28;20077;-58
2022/11/26 11:55:33;;;;;;;3.50;2.35;;;;;;;8.49;48.54;98428.03;10249591;28;20072;-58
2022/11/26 12:00:35;;;;;;;5.45;2.90;;;;;;;8.61;47.78;98426.50;10249506;28;20644;-58
2022/11/26 12:05:37;;;;;;;4.47;2.38;;;;;;;8.74;47.91;98423.31;10253905;28;20077;-58
2022/11/26 12:10:48;;;;;;;5.78;2.72;;;;;;;8.82;46.85;98416.53;10256213;28;20128;-57
2022/11/26 12:15:56;;;;;;;3.33;2.45;;;;;;;8.89;47.81;98423.53;10256853;28;20065;-58
2022/11/26 12:21:10;;;;;;;7.07;3.97;;;;;;;8.88;46.34;98407.97;10256765;28;20586;-56
2022/11/26 12:26:16;;;;;;;7.25;4.00;;;;;;;8.83;46.72;98407.94;10256422;28;20483;-57
2022/11/26 12:31:48;;;;;;;3.72;3.13;;;;;;;8.80;46.08;98407.84;10256263;28;20057;-57
2022/11/26 12:36:54;;;;;;;7.25;4.88;;;;;;;8.82;46.74;98408.75;10256253;28;20475;-56
2022/11/26 12:42:10;;;;;;;5.00;3.65;;;;;;;8.81;46.76;98407.03;10255909;28;20449;-57
2022/11/26 12:47:17;;;;;;;5.22;2.90;;;;;;;8.90;46.25;98404.59;10255822;28;20527;-58
2022/11/26 12:52:36;;;;;;;6.95;4.85;;;;;;;8.99;45.64;98403.84;10255816;28;20066;-57
2022/11/26 12:57:41;;;;;;;8.87;5.10;;;;;;;8.89;44.72;98397.66;10255353;28;20062;-56
2022/11/26 13:02:43;;;;;;;36.50;21.95;;;;;;;8.96;44.91;98403.81;10255262;28;20076;-56
2022/11/26 13:08:10;;;;;;;6.38;4.00;;;;;;;8.78;45.37;98399.19;10255907;28;20066;-56
2022/11/26 13:13:37;;;;;;;13.07;8.25;;;;;;;8.91;44.99;98400.28;10254258;28;20077;-57
2022/11/26 13:18:45;;;;;;;9.68;5.57;;;;;;;8.94;45.13;98403.78;10252406;28;20084;-57
2022/11/26 13:24:31;;;;;;;5.00;3.00;;;;;;;8.92;45.13;98402.88;10253098;28;20069;-58
2022/11/26 13:29:50;;;;;;;7.30;4.03;;;;;;;8.91;45.34;98410.63;10247351;28;20644;-57
2022/11/26 13:34:59;;;;;;;10.43;7.00;;;;;;;8.83;45.04;98407.94;10252249;28;20096;-57
2022/11/26 13:40:38;;;;;;;4.60;3.35;;;;;;;8.79;45.02;98420.78;10253709;28;20065;-57
2022/11/26 13:45:46;;;;;;;10.45;6.53;;;;;;;8.89;45.17;98423.53;10252021;28;20085;-57
2022/11/26 13:50:59;;;;;;;8.75;6.25;;;;;;;8.82;46.11;98446.72;10253204;28;20062;-58
2022/11/26 13:56:01;;;;;;;7.65;4.95;;;;;;;8.52;47.27;98438.44;10251953;28;20096;-55
2022/11/26 14:01:26;;;;;;;8.35;4.50;;;;;;;8.34;47.98;98453.63;10252779;28;20082;-55
2022/11/26 14:06:26;;;;;;;12.05;6.00;;;;;;;8.21;48.75;98451.63;10252855;28;20085;-55
2022/11/26 14:11:44;;;;;;;7.05;4.75;;;;;;;8.06;48.85;98457.34;10252411;28;20078;-56
2022/11/26 14:17:01;;;;;;;9.10;4.80;;;;;;;7.84;49.89;98453.47;10247456;28;20491;-56
2022/11/26 14:22:02;;;;;;;13.07;6.45;;;;;;;7.79;49.61;98453.38;10250617;28;20057;-56
2022/11/26 14:27:01;;;;;;;8.07;4.78;;;;;;;7.51;50.17;98462.22;10250102;28;20070;-56
2022/11/26 14:32:00;;;;;;;11.05;6.93;;;;;;;7.42;50.66;98474.94;10247859;28;20037;-56
2022/11/26 14:37:00;;;;;;;12.75;6.95;;;;;;;7.33;51.00;98479.84;10246180;28;20125;-56
2022/11/26 14:41:59;;;;;;;12.10;7.40;;;;;;;7.20;50.81;98484.72;10235406;28;20069;-59
2022/11/26 14:47:06;;;;;;;21.15;11.90;;;;;;;7.11;50.91;98497.41;10262373;28;20050;-57
2022/11/26 14:52:17;;;;;;;22.02;12.32;;;;;;;7.04;50.89;98513.56;10209724;28;20552;-56
2022/11/26 14:57:24;;;;;;;19.63;12.98;;;;;;;6.92;51.70;98511.56;10244196;28;20080;-57
2022/11/26 15:02:25;;;;;;;33.90;17.83;;;;;;;6.74;52.48;98516.22;10249095;28;20074;-58
2022/11/26 15:07:25;;;;;;;31.25;19.73;;;;;;;6.57;53.76;98524.41;10249038;28;20467;-57
2022/11/26 15:12:24;;;;;;;33.33;21.25;;;;;;;6.35;54.67;98533.25;10249507;28;20065;-57
2022/11/26 15:17:26;;;;;;;33.03;22.05;;;;;;;6.10;55.14;98535.97;10247874;28;20539;-57
2022/11/26 15:22:48;;;;;;;38.90;22.10;;;;;;;5.98;55.87;98539.03;10248358;28;20463;-57
2022/11/26 15:27:54;;;;;;;35.65;20.40;;;;;;;5.82;56.26;98545.44;10248457;28;20058;-57
2022/11/26 15:33:00;;;;;;;61.85;37.70;;;;;;;5.50;57.24;98547.88;10249602;28;20556;-57
2022/11/26 15:37:59;;;;;;;70.43;41.30;;;;;;;5.31;57.92;98559.28;10263455;28;20072;-57
2022/11/26 15:43:02;;;;;;;56.42;36.47;;;;;;;5.18;58.15;98557.16;10257361;28;20034;-57
2022/11/26 15:48:03;;;;;;;49.85;34.17;;;;;;;5.05;58.74;98557.53;10257113;28;20448;-58
2022/11/26 15:53:06;;;;;;;36.70;23.20;;;;;;;4.93;58.98;98553.69;10256453;28;20057;-57
2022/11/26 15:58:10;;;;;;;57.78;41.80;;;;;;;4.80;59.48;98566.06;10256573;28;20069;-58
2022/11/26 16:03:31;;;;;;;62.40;38.40;;;;;;;4.64;60.31;98562.97;10255792;28;20078;-57
2022/11/26 16:08:30;;;;;;;109.25;59.10;;;;;;;4.49;61.17;98572.69;10255868;28;20068;-58
2022/11/26 16:13:31;;;;;;;111.22;66.78;;;;;;;4.34;62.46;98583.31;10253800;28;20132;-58
2022/11/26 16:18:36;;;;;;;93.80;59.80;;;;;;;4.18;63.14;98587.00;10253960;28;20500;-57
2022/11/26 16:23:36;;;;;;;88.13;54.42;;;;;;;4.05;63.54;98600.19;10254778;28;20065;-57
2022/11/26 16:28:35;;;;;;;101.65;56.80;;;;;;;3.91;64.56;98603.91;10252738;28;20061;-57
2022/11/26 16:33:34;;;;;;;94.15;55.42;;;;;;;3.76;65.04;98611.91;10255337;28;20069;-58
2022/11/26 16:38:33;;;;;;;72.25;47.33;;;;;;;3.59;65.94;98612.09;10254554;28;20075;-57
2022/11/26 16:43:32;;;;;;;75.70;48.63;;;;;;;3.43;66.55;98614.88;10254058;28;20027;-58
2022/11/26 16:48:31;;;;;;;69.03;41.45;;;;;;;3.22;67.22;98614.84;10253764;28;20030;-58
2022/11/26 16:53:30;;;;;;;62.83;36.80;;;;;;;3.13;67.89;98624.72;10252559;28;20050;-58
2022/11/26 16:58:36;;;;;;;68.35;40.17;;;;;;;3.00;68.34;98616.53;10253551;28;20030;-58
2022/11/26 17:03:35;;;;;;;64.07;38.35;;;;;;;2.90;69.12;98627.16;10253924;28;20081;-58
2022/11/26 17:08:34;;;;;;;61.75;37.13;;;;;;;2.80;69.21;98630.16;10250327;28;20030;-58
2022/11/26 17:13:33;;;;;;;53.28;31.27;;;;;;;2.70;69.57;98626.31;10253218;28;20383;-59
2022/11/26 17:18:32;;;;;;;54.65;32.42;;;;;;;2.64;69.58;98627.72;10252775;28;20770;-57
2022/11/26 17:23:31;;;;;;;49.80;30.58;;;;;;;2.57;69.93;98637.69;10253540;28;20033;-57
2022/11/26 17:28:30;;;;;;;44.60;27.73;;;;;;;2.49;70.41;98638.16;10252403;28;20113;-58
2022/11/26 17:33:29;;;;;;;49.85;30.02;;;;;;;2.38;71.06;98641.13;10252331;28;20026;-57
2022/11/26 17:38:28;;;;;;;39.40;23.00;;;;;;;2.27;71.71;98657.66;10249471;28;20035;-57
2022/11/26 17:43:27;;;;;;;46.67;27.63;;;;;;;2.20;72.06;98660.75;10253192;28;20471;-57
2022/11/26 17:48:26;;;;;;;37.72;23.25;;;;;;;2.14;72.07;98660.50;10244604;28;20475;-58
2022/11/26 17:53:25;;;;;;;35.00;22.08;;;;;;;2.04;72.38;98653.16;10215709;28;20659;-56
2022/11/26 17:58:24;;;;;;;41.10;24.88;;;;;;;2.02;72.86;98668.47;10251689;28;20042;-57
2022/11/26 18:03:23;;;;;;;56.55;35.38;;;;;;;1.97;72.74;98680.16;10251171;28;20042;-58
2022/11/26 18:08:22;;;;;;;70.28;42.80;;;;;;;1.85;73.80;98683.00;10247810;28;20407;-58
2022/11/26 18:13:21;;;;;;;77.38;43.38;;;;;;;1.74;73.99;98695.28;10251366;28;20073;-57
2022/11/26 18:18:20;;;;;;;100.03;56.78;;;;;;;1.64;74.85;98682.84;10250468;28;20034;-57
2022/11/26 18:23:19;;;;;;;94.18;54.55;;;;;;;1.49;75.42;98692.34;10250496;28;20113;-57
2022/11/26 18:28:18;;;;;;;88.85;51.33;;;;;;;1.36;75.94;98689.94;10250543;28;20066;-57
2022/11/26 18:33:17;;;;;;;85.25;50.33;;;;;;;1.27;76.38;98696.38;10250794;28;20084;-57
2022/11/26 18:38:16;;;;;;;82.93;48.13;;;;;;;1.20;77.07;98693.41;10246760;28;20474;-57
2022/11/26 18:43:15;;;;;;;84.63;51.47;;;;;;;1.19;77.26;98681.44;10250253;28;20029;-57
2022/11/26 18:48:14;;;;;;;92.53;53.83;;;;;;;1.15;77.78;98682.06;10249133;28;20117;-57
2022/11/26 18:53:13;;;;;;;68.18;40.95;;;;;;;1.13;77.75;98692.25;10250260;28;20504;-57
2022/11/26 18:58:13;;;;;;;52.08;30.95;;;;;;;1.09;77.63;98706.53;10249008;28;20411;-57
2022/11/26 19:03:13;;;;;;;53.28;33.35;;;;;;;1.07;77.91;98708.13;10248592;28;20546;-57
2022/11/26 19:08:12;;;;;;;96.70;55.83;;;;;;;1.01;79.11;98701.81;10246055;28;20060;-57
2022/11/26 19:13:12;;;;;;;106.50;60.45;;;;;;;0.92;79.17;98712.47;10248239;28;20053;-57
2022/11/26 19:18:12;;;;;;;123.03;76.25;;;;;;;0.88;78.98;98713.97;10248635;28;20069;-57
2022/11/26 19:23:11;;;;;;;126.20;75.15;;;;;;;0.83;79.55;98725.63;10248208;28;20058;-58
2022/11/26 19:28:11;;;;;;;125.82;71.70;;;;;;;0.74;79.82;98717.47;10247487;28;20046;-57
2022/11/26 19:33:10;;;;;;;134.85;76.03;;;;;;;0.67;80.10;98707.72;10248269;28;20073;-57
2022/11/26 19:38:08;;;;;;;132.23;79.18;;;;;;;0.68;80.24;98712.91;10247677;28;20029;-57
2022/11/26 19:43:07;;;;;;;221.65;122.95;;;;;;;0.51;80.92;98717.91;10248544;28;20485;-57
2022/11/26 19:48:06;;;;;;;185.75;110.35;;;;;;;0.44;81.20;98735.44;10245589;28;20031;-57
2022/11/26 19:53:05;;;;;;;254.63;136.65;;;;;;;0.34;81.97;98740.00;10248288;28;20338;-57
2022/11/26 19:58:04;;;;;;;202.98;117.75;;;;;;;0.33;82.19;98739.09;10248104;28;20273;-57
2022/11/26 20:03:03;;;;;;;167.43;99.78;;;;;;;0.30;82.15;98738.91;10247454;28;20125;-57
2022/11/26 20:08:02;;;;;;;127.03;74.07;;;;;;;0.23;82.40;98749.59;10247810;28;20041;-57
2022/11/26 20:13:01;;;;;;;;;;;;;;;0.19;82.75;98725.56;10249397;28;20074;-57
2022/11/26 20:18:00;;;;;;;67.03;40.72;;;;;;;0.16;82.76;98734.72;10247166;28;20028;-58
2022/11/26 20:22:59;;;;;;;64.45;38.28;;;;;;;0.12;82.61;98732.78;10244552;28;20113;-58
2022/11/26 20:27:59;;;;;;;72.97;44.30;;;;;;;0.07;83.19;98730.00;10252921;28;20052;-58
2022/11/26 20:32:58;;;;;;;74.20;44.75;;;;;;;-0.00;83.17;98733.00;10254565;28;20110;-58
2022/11/26 20:37:57;;;;;;;200.30;103.43;;;;;;;-0.06;83.36;98747.97;10254896;28;20023;-58
2022/11/26 20:42:55;;;;;;;233.27;124.97;;;;;;;-0.13;83.76;98746.75;10253136;28;20037;-58
2022/11/26 20:47:55;;;;;;;179.55;101.65;;;;;;;-0.22;84.34;98738.56;10254296;28;20030;-58
2022/11/26 20:52:54;;;;;;;248.05;116.88;;;;;;;-0.22;84.58;98747.09;10250942;28;20113;-57
2022/11/26 20:57:53;;;;;;;124.85;61.55;;;;;;;-0.22;84.13;98748.78;10253793;28;20033;-57
2022/11/26 21:02:52;;;;;;;147.88;82.32;;;;;;;-0.26;84.40;98749.38;10253631;28;20051;-58
2022/11/26 21:07:51;;;;;;;197.57;113.63;;;;;;;-0.31;84.37;98750.78;10253354;28;20049;-59
2022/11/26 21:12:50;;;;;;;199.95;119.57;;;;;;;-0.36;84.72;98750.53;10254200;28;20030;-56
2022/11/26 21:17:49;;;;;;;182.80;109.97;;;;;;;-0.40;84.74;98752.00;10252810;28;20447;-57
2022/11/26 21:22:48;;;;;;;172.15;105.53;;;;;;;-0.44;84.68;98757.75;10249631;28;20044;-57
2022/11/26 21:27:47;;;;;;;188.70;107.45;;;;;;;-0.48;84.98;98755.78;10253045;28;20030;-57
2022/11/26 21:32:45;;;;;;;199.57;113.22;;;;;;;-0.48;85.42;98753.25;10252535;28;20124;-58
2022/11/26 21:37:44;;;;;;;174.38;100.25;;;;;;;-0.49;85.86;98750.59;10252224;28;20034;-58
2022/11/26 21:42:43;;;;;;;192.88;106.82;;;;;;;-0.61;85.14;98730.34;10251609;28;20508;-58
2022/11/26 21:47:43;;;;;;;187.05;104.10;;;;;;;-0.51;85.20;98757.25;10252127;28;20343;-57
2022/11/26 21:52:42;;;;;;;178.20;95.20;;;;;;;-0.52;85.69;98760.63;10252137;28;20070;-58
2022/11/26 21:57:41;;;;;;;137.15;78.47;;;;;;;-0.61;86.26;98761.81;10252641;28;20034;-57
2022/11/26 22:02:40;;;;;;;365.10;167.15;;;;;;;-0.67;85.85;98755.50;10252512;28;20133;-57
2022/11/26 22:07:39;;;;;;;124.80;69.75;;;;;;;-0.78;86.48;98761.63;10252735;28;20043;-57
2022/11/26 22:12:38;;;;;;;74.43;45.20;;;;;;;-0.84;86.59;98767.22;10252338;28;20030;-57
2022/11/26 22:17:37;;;;;;;114.50;62.22;;;;;;;-0.87;87.32;98778.13;10252344;28;20121;-57
2022/11/26 22:22:36;;;;;;;99.05;56.72;;;;;;;-0.93;86.80;98771.75;10252093;28;20026;-57
2022/11/26 22:27:35;;;;;;;123.07;67.75;;;;;;;-0.94;87.32;98775.13;10251946;28;20118;-57
2022/11/26 22:32:34;;;;;;;126.13;66.30;;;;;;;-0.93;87.35;98765.03;10251938;28;20044;-57
2022/11/26 22:37:33;;;;;;;116.25;64.60;;;;;;;-0.92;86.90;98769.31;10251553;28;20069;-57
2022/11/26 22:42:32;;;;;;;112.15;64.82;;;;;;;-0.93;86.66;98766.66;10251265;28;20121;-57
2022/11/26 22:47:31;;;;;;;106.55;61.45;;;;;;;-0.93;87.24;98769.22;10251361;28;20041;-58
2022/11/26 22:52:30;;;;;;;113.88;61.10;;;;;;;-0.94;87.11;98763.25;10251049;28;20026;-57
2022/11/26 22:57:29;;;;;;;113.72;64.05;;;;;;;-0.96;87.15;98754.63;10214328;28;20476;-57
2022/11/26 23:02:28;;;;;;;104.28;60.00;;;;;;;-0.96;86.70;98763.94;10210616;28;20125;-57
2022/11/26 23:07:27;;;;;;;109.82;67.38;;;;;;;-0.97;86.94;98757.97;10210443;28;20039;-57
2022/11/26 23:12:26;;;;;;;115.65;70.82;;;;;;;-1.02;86.82;98752.59;10210245;28;20070;-57